X  Close Metar Aviation Weather Data     KRYV Watertown Municipal Airport
Temperature
30°F Temperature
30°F Dewpoint
100% Humidity



Wind
0 MPH
0 KM/H
0 M/S
0 KTS



Calm
North
Current Conditions

Freezing Fog Freezing Fog
Pressure 1020.02 (hPa) - 30.12 (inHg)
Visibility 0.2 (mile) - 0.4 (km)
Airport
Airport-code KRYV

Location: Watertown Municipal Airport
Distance: 8 (mi)

Metar:
KRYV 070735Z AUTO 00000KT 1/4SM FZFG OVC003 M01/M01 A3012 RMK AO2 T10081014

Time: 07-12-2022 01:35 CST